Time;durP1;ratioP1;P1;durP2;ratioP2;P2;SDS_P1;SDS_P2;PMS_P1;PMS_P2;Temp;Humidity;BMP_temperature;BMP_pressure;BME280_temperature;BME280_humidity;BME280_pressure;Samples;Min_cycle;Max_cycle;Signal;HPM_P1;HPM_P2
2022/09/07 00:01:06;;;;;;;10.17;6.27;;;17.50;14.90;;;;;;5110151;28;20517;-87
2022/09/07 00:03:32;;;;;;;16.27;5.93;;;17.60;13.10;;;;;;5111586;28;20167;-87
2022/09/07 00:06:17;;;;;;;16.73;6.37;;;17.60;10.90;;;;;;5110267;28;20430;-86
2022/09/07 00:12:59;;;;;;;9.87;5.60;;;17.60;13.80;;;;;;5100998;28;20479;-87
2022/09/07 00:15:29;;;;;;;22.90;13.53;;;17.70;13.50;;;;;;5105752;28;20473;-79
2022/09/07 00:17:59;;;;;;;14.10;9.00;;;17.60;16.00;;;;;;5108032;28;20405;-79
2022/09/07 00:20:56;;;;;;;17.23;6.07;;;17.60;15.80;;;;;;5114351;28;20409;-78
2022/09/07 00:23:21;;;;;;;6.57;5.27;;;17.70;15.00;;;;;;5088697;28;20390;-79
2022/09/07 00:25:47;;;;;;;9.10;4.80;;;17.70;15.10;;;;;;5102693;28;20421;-78
2022/09/07 00:28:17;;;;;;;15.77;5.40;;;17.70;14.40;;;;;;5098983;28;20180;-78
2022/09/07 00:30:43;;;;;;;14.00;5.47;;;17.70;15.10;;;;;;5104831;28;20400;-86
2022/09/07 00:33:35;;;;;;;8.00;5.20;;;17.70;17.00;;;;;;5099601;28;20401;-87
2022/09/07 00:39:23;;;;;;;6.87;5.07;;;17.80;16.30;;;;;;5090389;28;20417;-87
2022/09/07 00:42:11;;;;;;;15.00;5.60;;;17.70;15.60;;;;;;5090391;28;20761;-86
2022/09/07 00:45:06;;;;;;;13.70;5.50;;;17.80;18.80;;;;;;5078242;28;20215;-86
2022/09/07 00:51:32;;;;;;;11.53;6.17;;;17.80;17.20;;;;;;5081958;28;20977;-86
2022/09/07 00:54:03;;;;;;;6.30;4.90;;;17.90;15.10;;;;;;5090257;28;20623;-87
2022/09/07 00:56:39;;;;;;;5.90;4.53;;;18.00;13.10;;;;;;5079839;28;20405;-87
2022/09/07 00:59:38;;;;;;;13.00;5.10;;;18.00;11.00;;;;;;5075351;28;20405;-87
2022/09/07 01:02:06;;;;;;;10.43;5.47;;;18.00;12.10;;;;;;5084500;28;20505;-79
2022/09/07 01:04:36;;;;;;;5.63;4.93;;;18.00;12.60;;;;;;5090736;28;20430;-79
2022/09/07 01:07:23;;;;;;;10.67;5.73;;;17.90;14.80;;;;;;5085622;28;20437;-79
2022/09/07 01:10:00;;;;;;;11.33;5.80;;;17.90;17.30;;;;;;5083854;28;20430;-78
2022/09/07 01:12:26;;;;;;;11.13;5.57;;;18.00;17.30;;;;;;5077396;28;20440;-79
2022/09/07 01:14:54;;;;;;;9.63;5.77;;;18.00;17.60;;;;;;5084530;28;20442;-79
2022/09/07 01:17:47;;;;;;;10.40;6.13;;;18.00;20.50;;;;;;5077451;28;20182;-79
2022/09/07 01:20:37;;;;;;;11.10;5.73;;;18.10;22.70;;;;;;5087195;28;20927;-79
2022/09/07 01:23:38;;;;;;;13.50;6.33;;;18.10;22.60;;;;;;5084793;28;20391;-79
2022/09/07 01:26:23;;;;;;;13.93;5.67;;;18.10;21.10;;;;;;5075335;28;20960;-78
2022/09/07 01:29:06;;;;;;;16.60;5.47;;;18.20;19.20;;;;;;5083776;28;20427;-78
2022/09/07 01:32:00;;;;;;;9.43;5.70;;;18.20;18.90;;;;;;5082074;28;20503;-87
2022/09/07 01:34:26;;;;;;;10.53;5.97;;;18.20;15.10;;;;;;5077322;28;20431;-86
2022/09/07 01:37:14;;;;;;;11.33;5.23;;;18.20;16.30;;;;;;5089468;28;20547;-86
2022/09/07 01:43:07;;;;;;;7.67;5.13;;;18.30;19.20;;;;;;5087405;28;20428;-86
2022/09/07 01:46:07;;;;;;;22.30;5.67;;;18.30;17.20;;;;;;5090654;28;20439;-86
2022/09/07 01:48:43;;;;;;;19.73;5.37;;;18.30;21.30;;;;;;5074757;28;20435;-87
2022/09/07 01:58:12;;;;;;;10.17;5.43;;;18.30;21.20;;;;;;5075914;28;20397;-86
2022/09/07 02:00:59;;;;;;;15.10;5.50;;;18.30;21.40;;;;;;5083936;28;20942;-82
2022/09/07 02:03:32;;;;;;;14.87;5.10;;;18.30;21.60;;;;;;5076899;28;20429;-87
2022/09/07 02:06:23;;;;;;;14.10;6.20;;;18.20;23.00;;;;;;5084185;28;20922;-86
2022/09/07 02:09:06;;;;;;;15.80;6.17;;;18.00;32.40;;;;;;5079163;28;20915;-87
2022/09/07 02:15:13;;;;;;;13.33;5.60;;;18.00;49.00;;;;;;5076029;28;20438;-87
2022/09/07 02:17:43;;;;;;;12.20;5.20;;;18.10;34.60;;;;;;5090467;28;20463;-87
2022/09/07 02:20:36;;;;;;;14.53;5.63;;;18.10;27.90;;;;;;5084567;28;20860;-87
2022/09/07 02:23:09;;;;;;;11.70;6.43;;;18.10;29.80;;;;;;5093371;28;20497;-86
2022/09/07 02:25:40;;;;;;;8.50;5.63;;;18.20;33.70;;;;;;5088784;28;20404;-87
2022/09/07 02:28:53;;;;;;;10.90;5.83;;;18.20;31.70;;;;;;5083323;28;20391;-87
2022/09/07 02:31:19;;;;;;;8.00;5.50;;;18.20;31.30;;;;;;5081432;28;20573;-80
2022/09/07 02:34:05;;;;;;;10.93;6.10;;;18.30;29.20;;;;;;5077320;28;20470;-79
2022/09/07 02:36:49;;;;;;;9.73;6.30;;;18.30;25.60;;;;;;5076591;28;20398;-78
2022/09/07 02:39:23;;;;;;;11.60;6.70;;;18.20;28.50;;;;;;5091348;28;20390;-79
2022/09/07 02:41:49;;;;;;;12.93;6.13;;;18.20;24.90;;;;;;5075492;28;20512;-78
2022/09/07 02:44:33;;;;;;;12.43;5.90;;;18.10;23.50;;;;;;5076782;28;20526;-79
2022/09/07 02:47:21;;;;;;;20.17;6.10;;;18.10;26.30;;;;;;5078105;28;20189;-87
2022/09/07 02:50:12;;;;;;;8.87;5.73;;;18.10;26.90;;;;;;5083989;28;21065;-87
2022/09/07 02:53:05;;;;;;;12.90;6.33;;;18.10;27.50;;;;;;5082635;28;20485;-87
2022/09/07 02:56:05;;;;;;;12.30;6.83;;;18.10;27.80;;;;;;5079611;28;20438;-87
2022/09/07 02:59:03;;;;;;;12.23;5.83;;;18.10;29.50;;;;;;5084121;28;20403;-87
2022/09/07 03:02:06;;;;;;;12.30;6.37;;;18.10;35.20;;;;;;5080748;28;20464;-87
2022/09/07 03:08:35;;;;;;;14.67;6.40;;;18.10;38.60;;;;;;5086923;28;20426;-87
2022/09/07 03:11:06;;;;;;;7.97;6.07;;;18.10;41.70;;;;;;5087925;28;20512;-87
2022/09/07 03:14:05;;;;;;;9.73;5.87;;;18.10;44.10;;;;;;5083426;28;20890;-87
2022/09/07 03:17:05;;;;;;;8.03;5.87;;;18.00;49.00;;;;;;5079198;28;20838;-78
2022/09/07 03:19:36;;;;;;;11.70;6.20;;;18.00;49.00;;;;;;5073614;28;20398;-79
2022/09/07 03:22:05;;;;;;;6.80;5.43;;;17.90;48.90;;;;;;5078531;28;20408;-78
2022/09/07 03:24:35;;;;;;;8.17;6.20;;;17.90;49.00;;;;;;5075363;28;20828;-79
2022/09/07 03:27:01;;;;;;;8.60;5.60;;;17.90;49.20;;;;;;5084993;28;20401;-79
2022/09/07 03:29:35;;;;;;;8.57;6.00;;;17.90;48.90;;;;;;5078419;28;20518;-80
2022/09/07 03:32:35;;;;;;;14.63;5.90;;;17.90;49.10;;;;;;5081192;28;20213;-87
2022/09/07 03:35:35;;;;;;;20.63;6.60;;;17.80;49.00;;;;;;5084814;28;20423;-87
2022/09/07 03:38:35;;;;;;;13.57;5.63;;;17.80;48.80;;;;;;5074209;28;20514;-87
2022/09/07 03:41:23;;;;;;;23.33;5.20;;;17.80;48.80;;;;;;5080096;28;20411;-87
2022/09/07 03:44:29;;;;;;;9.63;6.17;;;17.80;48.80;;;;;;5077819;28;20436;-87
2022/09/07 03:46:55;;;;;;;12.83;5.50;;;17.80;48.80;;;;;;5075021;28;20493;-80
2022/09/07 03:49:20;;;;;;;6.20;5.60;;;17.80;49.10;;;;;;5073365;28;20489;-80
2022/09/07 03:51:46;;;;;;;13.10;5.87;;;17.80;48.90;;;;;;5082649;28;20200;-80
2022/09/07 03:54:29;;;;;;;8.60;6.40;;;17.70;48.70;;;;;;5093114;28;20188;-79
2022/09/07 03:56:59;;;;;;;19.43;5.50;;;17.70;48.90;;;;;;5077787;28;20584;-79
2022/09/07 03:59:53;;;;;;;9.00;5.87;;;17.70;48.90;;;;;;5082752;28;20382;-80
2022/09/07 04:03:05;;;;;;;7.27;5.97;;;17.70;48.90;;;;;;5076069;28;20413;-87
2022/09/07 04:06:05;;;;;;;9.73;7.07;;;17.80;48.90;;;;;;5087843;28;20489;-87
2022/09/07 04:08:37;;;;;;;11.53;6.30;;;17.80;48.80;;;;;;5091478;28;20976;-87
2022/09/07 04:11:18;;;;;;;7.33;5.93;;;17.80;48.90;;;;;;5083611;28;20479;-87
2022/09/07 04:13:53;;;;;;;13.97;6.17;;;17.90;48.90;;;;;;5073829;28;20402;-87
2022/09/07 04:16:22;;;;;;;7.73;5.80;;;17.90;49.00;;;;;;5081783;28;20430;-88
2022/09/07 04:18:59;;;;;;;7.40;5.57;;;17.80;49.00;;;;;;5093902;28;20403;-79
2022/09/07 04:21:30;;;;;;;8.57;5.80;;;17.80;48.80;;;;;;5101492;28;20402;-78
2022/09/07 04:23:59;;;;;;;11.07;6.10;;;17.70;48.80;;;;;;5078468;28;20402;-79
2022/09/07 04:26:32;;;;;;;9.30;6.33;;;17.70;48.80;;;;;;5079949;28;20410;-78
2022/09/07 04:29:00;;;;;;;10.53;6.53;;;17.80;48.80;;;;;;5076851;28;20937;-75
2022/09/07 04:31:26;;;;;;;8.60;6.67;;;17.70;48.80;;;;;;5079952;28;20475;-76
2022/09/07 04:33:52;;;;;;;10.50;7.00;;;17.60;48.70;;;;;;5098858;28;20926;-78
2022/09/07 04:36:19;;;;;;;17.10;6.57;;;17.60;48.70;;;;;;5076519;28;20712;-78
2022/09/07 04:39:17;;;;;;;7.30;6.33;;;17.60;48.70;;;;;;5080179;28;20755;-78
2022/09/07 04:41:47;;;;;;;10.67;6.50;;;17.60;48.70;;;;;;5079294;28;20501;-78
2022/09/07 04:44:23;;;;;;;13.37;7.27;;;17.60;48.70;;;;;;5082431;28;20457;-78
2022/09/07 04:47:05;;;;;;;10.83;7.00;;;17.50;48.60;;;;;;5081497;28;20495;-79
2022/09/07 04:49:36;;;;;;;10.70;6.40;;;17.50;48.60;;;;;;5089271;28;20756;-78
2022/09/07 04:52:05;;;;;;;13.40;7.17;;;17.50;48.60;;;;;;5083303;28;20429;-78
2022/09/07 04:54:35;;;;;;;11.23;6.70;;;17.50;48.60;;;;;;5077391;28;20387;-78
2022/09/07 04:57:05;;;;;;;14.63;6.93;;;17.40;48.50;;;;;;5079781;28;20783;-78
2022/09/07 04:59:35;;;;;;;13.23;6.80;;;17.40;48.70;;;;;;5075808;28;20437;-78
2022/09/07 05:02:05;;;;;;;15.47;7.00;;;17.30;48.40;;;;;;5083961;28;20508;-78
2022/09/07 05:04:35;;;;;;;13.40;7.47;;;17.30;48.40;;;;;;5079334;28;20409;-78
2022/09/07 05:07:05;;;;;;;10.53;6.47;;;17.20;48.30;;;;;;5085619;28;20459;-79
2022/09/07 05:09:35;;;;;;;12.77;7.10;;;17.20;48.30;;;;;;5077325;28;20387;-78
2022/09/07 05:12:05;;;;;;;10.43;7.00;;;17.10;48.40;;;;;;5075672;28;20464;-79
2022/09/07 05:14:35;;;;;;;9.87;6.57;;;17.20;48.30;;;;;;5088437;28;20405;-78
2022/09/07 05:17:06;;;;;;;16.13;7.50;;;17.20;48.30;;;;;;5076984;28;20429;-78
2022/09/07 05:19:36;;;;;;;19.83;7.90;;;17.20;48.30;;;;;;5087066;28;20409;-78
2022/09/07 05:22:05;;;;;;;15.10;7.10;;;17.20;52.40;;;;;;5082862;28;20600;-78
2022/09/07 05:24:47;;;;;;;17.73;7.90;;;17.30;48.40;;;;;;5076433;28;20925;-79
2022/09/07 05:27:17;;;;;;;20.00;8.90;;;17.30;48.40;;;;;;5093182;28;20412;-78
2022/09/07 05:29:47;;;;;;;25.70;7.47;;;17.30;48.40;;;;;;5082375;28;20442;-78
2022/09/07 05:32:17;;;;;;;16.10;7.47;;;17.20;48.40;;;;;;5080213;28;20965;-78
2022/09/07 05:34:43;;;;;;;10.47;6.77;;;17.20;48.30;;;;;;5089075;28;20379;-75
2022/09/07 05:37:09;;;;;;;16.70;7.17;;;17.20;48.30;;;;;;5088163;28;20401;-75
2022/09/07 05:39:35;;;;;;;10.27;6.50;;;17.20;44.40;;;;;;5081438;28;20396;-75
2022/09/07 05:42:17;;;;;;;13.67;6.23;;;17.20;48.50;;;;;;5079602;28;20179;-76
2022/09/07 05:44:44;;;;;;;17.40;6.40;;;17.20;48.30;;;;;;5074072;28;20959;-75
2022/09/07 05:47:10;;;;;;;16.33;7.30;;;17.20;48.30;;;;;;5076841;28;20406;-75
2022/09/07 05:49:36;;;;;;;12.53;8.20;;;17.20;48.30;;;;;;5078192;28;20405;-75
2022/09/07 05:52:02;;;;;;;15.13;8.03;;;17.30;48.40;;;;;;5083648;28;20440;-76
2022/09/07 05:54:29;;;;;;;12.60;7.60;;;17.30;48.40;;;;;;5092429;28;20175;-75
2022/09/07 05:57:01;;;;;;;15.07;7.80;;;17.30;48.60;;;;;;5074701;28;20428;-75
2022/09/07 05:59:35;;;;;;;15.83;8.33;;;17.40;48.70;;;;;;5076554;28;20407;-75
2022/09/07 06:02:06;;;;;;;9.10;7.47;;;17.40;48.50;;;;;;5076526;28;20431;-75
2022/09/07 06:04:32;;;;;;;10.60;7.77;;;17.40;48.50;;;;;;5078249;28;20493;-75
2022/09/07 06:06:59;;;;;;;12.53;7.60;;;17.50;48.60;;;;;;5086378;28;20434;-75
2022/09/07 06:09:25;;;;;;;17.53;7.70;;;17.50;48.70;;;;;;5082825;28;20397;-75
2022/09/07 06:11:53;;;;;;;11.90;7.50;;;17.50;48.50;;;;;;5086500;28;20429;-75
2022/09/07 06:14:41;;;;;;;19.10;8.47;;;17.60;48.80;;;;;;5089341;28;20196;-75
2022/09/07 06:17:07;;;;;;;11.93;8.13;;;17.70;48.70;;;;;;5095850;28;20390;-75
2022/09/07 06:19:33;;;;;;;20.33;8.30;;;17.70;48.70;;;;;;5101779;28;20455;-75
2022/09/07 06:21:58;;;;;;;13.70;8.50;;;17.80;48.80;;;;;;5086924;28;20453;-75
2022/09/07 06:24:24;;;;;;;17.17;8.07;;;17.80;49.10;;;;;;5085265;28;20185;-75
2022/09/07 06:26:54;;;;;;;13.13;8.30;;;17.90;49.00;;;;;;5079334;28;20192;-79
2022/09/07 06:29:29;;;;;;;15.47;8.73;;;18.00;53.30;;;;;;5080082;28;20177;-78
2022/09/07 06:32:17;;;;;;;16.70;9.80;;;18.10;49.10;;;;;;5073751;28;20521;-79
2022/09/07 06:34:43;;;;;;;15.53;9.70;;;18.20;49.30;;;;;;5075386;28;20430;-75
2022/09/07 06:37:09;;;;;;;20.60;12.73;;;18.30;49.40;;;;;;5075682;28;20518;-75
2022/09/07 06:39:42;;;;;;;16.83;11.40;;;18.40;49.40;;;;;;5078577;28;20177;-75
2022/09/07 06:42:07;;;;;;;28.60;11.40;;;18.50;49.50;;;;;;5087641;28;20960;-75
2022/09/07 06:44:35;;;;;;;20.77;13.20;;;18.60;49.60;;;;;;5073583;28;20435;-75
2022/09/07 06:47:01;;;;;;;23.23;13.50;;;18.70;49.70;;;;;;5074008;28;20193;-75
2022/09/07 06:49:47;;;;;;;22.40;12.93;;;18.80;49.80;;;;;;5075477;28;20482;-78
2022/09/07 06:52:18;;;;;;;20.93;13.20;;;18.90;49.80;;;;;;5085051;28;20275;-78
2022/09/07 06:54:43;;;;;;;35.20;14.60;;;19.00;50.00;;;;;;5078206;28;20415;-78
2022/09/07 06:57:18;;;;;;;22.03;12.63;;;19.10;54.30;;;;;;5078221;28;20436;-78
2022/09/07 06:59:59;;;;;;;15.40;10.57;;;19.20;50.10;;;;;;5084957;28;20637;-78
2022/09/07 07:02:53;;;;;;;12.80;10.00;;;19.20;36.60;;;;;;5081977;28;20434;-80
2022/09/07 07:05:30;;;;;;;14.20;8.60;;;19.20;42.40;;;;;;5079365;28;20428;-81
2022/09/07 07:08:12;;;;;;;12.53;9.03;;;19.30;26.80;;;;;;5073205;28;20915;-79
2022/09/07 07:10:42;;;;;;;13.63;8.13;;;19.40;22.50;;;;;;5082076;28;20412;-78
2022/09/07 07:13:12;;;;;;;11.50;7.33;;;19.40;22.20;;;;;;5074375;28;20959;-78
2022/09/07 07:15:38;;;;;;;14.17;7.03;;;19.50;19.90;;;;;;5077852;28;20431;-78
2022/09/07 07:18:13;;;;;;;9.83;6.70;;;19.60;2.10;;;;;;5088913;28;20466;-78
2022/09/07 07:20:40;;;;;;;16.43;6.70;;;19.70;3.20;;;;;;5080652;28;20184;-75
2022/09/07 07:23:18;;;;;;;7.27;5.90;;;19.80;4.00;;;;;;5084477;28;20969;-76
2022/09/07 07:25:44;;;;;;;8.43;5.23;;;20.00;1.00;;;;;;5077539;28;20512;-75
2022/09/07 07:28:12;;;;;;;6.63;5.43;;;20.20;1.00;;;;;;5081120;28;20566;-76
2022/09/07 07:30:38;;;;;;;10.83;6.00;;;20.30;1.00;;;;;;5079481;28;20179;-76
2022/09/07 07:33:04;;;;;;;11.67;5.10;;;20.40;1.00;;;;;;5081298;28;20815;-76
2022/09/07 07:35:36;;;;;;;8.10;4.50;;;20.50;1.00;;;;;;5087454;28;20176;-78
2022/09/07 07:38:12;;;;;;;5.60;4.37;;;20.70;1.00;;;;;;5073401;28;20468;-78
2022/09/07 07:40:37;;;;;;;5.77;4.20;;;20.90;1.00;;;;;;5081026;28;20422;-78
2022/09/07 07:43:03;;;;;;;8.80;4.90;;;21.00;1.00;;;;;;5076952;28;20436;-78
2022/09/07 07:45:28;;;;;;;8.07;4.70;;;21.00;1.00;;;;;;5072143;28;20179;-78
2022/09/07 07:47:54;;;;;;;5.90;4.47;;;21.00;1.00;;;;;;5072211;28;20272;-78
2022/09/07 07:50:19;;;;;;;10.30;4.70;;;21.00;1.00;;;;;;5073109;28;20200;-78
2022/09/07 07:52:45;;;;;;;5.10;4.20;;;21.20;1.00;;;;;;5071717;28;20684;-78
2022/09/07 07:55:18;;;;;;;12.40;4.40;;;21.30;1.00;;;;;;5073877;28;20183;-79
2022/09/07 07:57:43;;;;;;;12.13;4.30;;;21.40;1.00;;;;;;5081748;28;20237;-79
2022/09/07 08:00:13;;;;;;;6.10;3.70;;;21.70;1.00;;;;;;5090789;28;20408;-79
2022/09/07 08:02:42;;;;;;;12.07;3.60;;;22.00;1.00;;;;;;5091880;28;20189;-79
2022/09/07 08:05:12;;;;;;;7.97;3.87;;;22.40;1.00;;;;;;5090632;28;20485;-75
2022/09/07 08:07:37;;;;;;;7.23;3.70;;;22.80;1.00;;;;;;5090881;28;20496;-75
2022/09/07 08:10:03;;;;;;;10.90;3.93;;;23.00;1.00;;;;;;5088418;28;20975;-75
2022/09/07 08:12:30;;;;;;;7.57;4.00;;;23.10;1.00;;;;;;5095118;28;20202;-75
2022/09/07 08:15:00;;;;;;;5.27;3.20;;;23.10;1.00;;;;;;5092343;28;20415;-76
2022/09/07 08:17:26;;;;;;;7.10;3.60;;;23.20;1.00;;;;;;5089296;28;20424;-76
2022/09/07 08:20:00;;;;;;;6.10;3.17;;;22.90;1.00;;;;;;5086221;28;20420;-75
2022/09/07 08:22:25;;;;;;;6.57;3.40;;;22.80;1.00;;;;;;5076565;28;20186;-75
2022/09/07 08:24:53;;;;;;;5.30;3.30;;;22.60;1.00;;;;;;5090128;28;20426;-76
2022/09/07 08:27:19;;;;;;;9.80;3.83;;;22.60;1.00;;;;;;5082006;28;20193;-76
2022/09/07 08:29:45;;;;;;;9.60;3.10;;;22.40;1.00;;;;;;5075345;28;20518;-75
2022/09/07 08:32:11;;;;;;;11.20;4.17;;;22.30;1.00;;;;;;5075426;28;20267;-76
2022/09/07 08:34:36;;;;;;;5.90;2.73;;;22.00;1.00;;;;;;5076301;28;20171;-76
2022/09/07 08:37:02;;;;;;;4.47;3.33;;;22.20;1.00;;;;;;5083995;28;20177;-75
2022/09/07 08:39:28;;;;;;;5.00;3.57;;;22.30;1.00;;;;;;5081114;28;20190;-76
2022/09/07 08:42:02;;;;;;;4.93;3.50;;;22.30;1.00;;;;;;5082749;28;20790;-75
2022/09/07 08:44:46;;;;;;;7.10;3.17;;;22.40;1.00;;;;;;5073128;28;20533;-75
2022/09/07 08:47:44;;;;;;;6.67;3.30;;;22.50;1.00;;;;;;5077610;28;20428;-76
2022/09/07 08:50:18;;;;;;;7.83;2.87;;;22.60;1.00;;;;;;5091010;28;20426;-76
2022/09/07 08:53:05;;;;;;;5.17;3.37;;;22.80;1.00;;;;;;5079487;28;20497;-75
2022/09/07 08:55:37;;;;;;;5.50;3.53;;;23.10;1.00;;;;;;5075224;28;20392;-75
2022/09/07 08:58:12;;;;;;;11.43;3.37;;;23.00;1.00;;;;;;5086770;28;20449;-76
2022/09/07 09:00:38;;;;;;;6.97;3.33;;;23.20;1.00;;;;;;5086408;28;20426;-76
2022/09/07 09:03:13;;;;;;;4.33;3.10;;;23.40;1.00;;;;;;5076516;28;20434;-75
2022/09/07 09:05:56;;;;;;;5.03;3.13;;;23.40;1.00;;;;;;5073382;28;20238;-80
2022/09/07 09:08:36;;;;;;;6.80;2.90;;;23.40;1.00;;;;;;5075673;28;20487;-80
2022/09/07 09:11:23;;;;;;;5.33;3.07;;;23.40;1.00;;;;;;5074497;28;20983;-80
2022/09/07 09:14:23;;;;;;;6.03;3.50;;;23.60;1.00;;;;;;5076260;28;20431;-80
2022/09/07 09:16:56;;;;;;;15.30;3.60;;;23.90;1.00;;;;;;5078597;28;20492;-81
2022/09/07 09:19:33;;;;;;;4.30;3.20;;;23.80;1.00;;;;;;5083900;28;20789;-80
2022/09/07 09:22:13;;;;;;;13.20;3.87;;;23.80;1.00;;;;;;5083788;28;20440;-80
2022/09/07 09:24:46;;;;;;;5.10;3.13;;;23.90;1.00;;;;;;5078432;28;20832;-81
2022/09/07 09:27:11;;;;;;;6.53;2.90;;;24.00;1.00;;;;;;5074883;28;20416;-80
2022/09/07 09:29:37;;;;;;;4.90;3.00;;;24.20;1.00;;;;;;5080811;28;20450;-80
2022/09/07 09:32:30;;;;;;;9.03;3.33;;;24.10;1.00;;;;;;5073973;28;20298;-80
2022/09/07 09:35:09;;;;;;;7.60;2.60;;;24.00;1.00;;;;;;5031649;28;20433;-80
2022/09/07 09:37:39;;;;;;;4.10;2.80;;;24.30;1.00;;;;;;5032108;28;20904;-80
2022/09/07 09:40:08;;;;;;;10.23;3.00;;;24.80;1.00;;;;;;5022294;28;20523;-80
2022/09/07 09:42:35;;;;;;;5.93;2.60;;;25.20;1.00;;;;;;5030998;28;20904;-80
2022/09/07 09:45:10;;;;;;;3.83;2.50;;;25.30;1.00;;;;;;5028049;28;20430;-80
2022/09/07 09:47:37;;;;;;;3.77;2.77;;;25.20;1.00;;;;;;5032066;28;20441;-81
2022/09/07 09:50:43;;;;;;;3.17;2.47;;;25.40;1.00;;;;;;5028422;28;20805;-80
2022/09/07 09:53:23;;;;;;;6.27;2.47;;;25.70;1.00;;;;;;4915215;29;20472;-80
2022/09/07 09:55:51;;;;;;;7.90;2.53;;;25.90;1.00;;;;;;4929169;29;20447;-79
2022/09/07 09:58:46;;;;;;;10.40;2.40;;;25.80;1.00;;;;;;4911732;29;20442;-80
2022/09/07 10:01:24;;;;;;;5.30;2.70;;;25.70;1.00;;;;;;4924725;29;20589;-80
2022/09/07 10:03:49;;;;;;;6.70;2.77;;;25.30;1.00;;;;;;4911249;29;20445;-80
2022/09/07 10:06:17;;;;;;;7.90;2.37;;;25.40;1.00;;;;;;4909745;29;20964;-80
2022/09/07 10:09:00;;;;;;;12.13;2.37;;;25.30;1.00;;;;;;4914566;29;20217;-79
2022/09/07 10:11:59;;;;;;;5.70;2.13;;;25.20;1.00;;;;;;4949039;28;21544;-80
2022/09/07 10:14:35;;;;;;;2.43;2.00;;;25.00;1.00;;;;;;4976977;28;20476;-79
2022/09/07 10:17:10;;;;;;;6.03;2.33;;;25.00;1.00;;;;;;4980022;28;20432;-81
2022/09/07 10:19:38;;;;;;;6.97;2.07;;;25.10;1.00;;;;;;4984243;28;20552;-80
2022/09/07 10:22:37;;;;;;;7.47;2.50;;;25.30;1.00;;;;;;4979825;28;20476;-80
2022/09/07 10:25:40;;;;;;;4.43;2.20;;;25.20;1.00;;;;;;4985236;28;20499;-83
2022/09/07 10:28:14;;;;;;;13.80;2.07;;;25.30;1.00;;;;;;4950175;28;20447;-84
2022/09/07 10:31:01;;;;;;;6.10;2.60;;;25.20;1.00;;;;;;4986312;28;20955;-85
2022/09/07 10:33:42;;;;;;;3.03;2.13;;;25.30;1.00;;;;;;5011526;28;20474;-87
2022/09/07 10:36:41;;;;;;;2.00;1.67;;;25.40;1.00;;;;;;5010906;28;20436;-77
2022/09/07 10:39:21;;;;;;;5.43;2.20;;;25.70;1.00;;;;;;5011911;28;20885;-76
2022/09/07 10:42:05;;;;;;;5.50;1.97;;;25.80;1.00;;;;;;5011886;28;20564;-77
2022/09/07 10:44:44;;;;;;;2.50;1.80;;;25.80;1.00;;;;;;4996151;28;20406;-77
2022/09/07 10:47:24;;;;;;;3.90;2.20;;;25.90;1.00;;;;;;5003555;28;20451;-76
2022/09/07 10:50:02;;;;;;;4.17;1.70;;;25.80;1.00;;;;;;4995957;28;20419;-76
2022/09/07 10:52:37;;;;;;;8.93;3.00;;;25.70;1.00;;;;;;5006046;28;20614;-76
2022/09/07 10:55:30;;;;;;;6.60;1.90;;;25.80;1.00;;;;;;5011829;28;20959;-81
2022/09/07 10:58:35;;;;;;;6.80;2.23;;;25.90;1.00;;;;;;5011954;28;20434;-79
2022/09/07 11:01:01;;;;;;;8.60;2.60;;;26.00;1.00;;;;;;5010141;28;20431;-77
2022/09/07 11:03:53;;;;;;;4.17;2.30;;;26.20;1.00;;;;;;5072811;28;20416;-77
2022/09/07 11:06:28;;;;;;;3.50;2.20;;;26.10;1.00;;;;;;5079211;28;20584;-76
2022/09/07 11:09:24;;;;;;;6.17;2.33;;;26.20;1.00;;;;;;5086638;28;20438;-76
2022/09/07 11:12:17;;;;;;;4.63;2.23;;;26.30;1.00;;;;;;5083099;28;20495;-76
2022/09/07 11:15:15;;;;;;;6.57;1.97;;;26.50;1.00;;;;;;5082619;28;20511;-81
2022/09/07 11:17:59;;;;;;;9.17;2.20;;;26.70;1.00;;;;;;5087796;28;20424;-79
2022/09/07 11:21:02;;;;;;;4.30;2.07;;;26.80;1.00;;;;;;5082051;28;20419;-77
2022/09/07 11:23:43;;;;;;;10.00;2.10;;;26.70;1.00;;;;;;5079781;28;20423;-84
2022/09/07 11:26:42;;;;;;;7.63;1.93;;;26.90;1.00;;;;;;5087192;28;20412;-83
2022/09/07 11:29:35;;;;;;;2.60;1.97;;;27.10;1.00;;;;;;5073602;28;20462;-78
2022/09/07 11:32:14;;;;;;;3.90;2.20;;;27.10;1.00;;;;;;5086617;28;21014;-77
2022/09/07 11:35:18;;;;;;;3.83;2.00;;;27.30;1.00;;;;;;5089514;28;20415;-79
2022/09/07 11:38:13;;;;;;;3.23;2.20;;;27.20;1.00;;;;;;5082909;28;20421;-82
2022/09/07 11:41:24;;;;;;;9.03;2.20;;;27.10;1.00;;;;;;5077549;28;20414;-82
2022/09/07 11:44:05;;;;;;;7.00;2.10;;;27.00;1.00;;;;;;5074365;28;20412;-84
2022/09/07 11:46:54;;;;;;;6.10;1.90;;;27.10;1.00;;;;;;5073238;28;20390;-84
2022/09/07 11:49:30;;;;;;;3.10;1.93;;;27.20;1.00;;;;;;5091079;28;20421;-84
2022/09/07 11:55:37;;;;;;;8.10;1.77;;;27.50;1.00;;;;;;5083063;28;20472;-85
2022/09/07 11:58:29;;;;;;;2.63;1.80;;;27.60;1.00;;;;;;5079548;28;20430;-84
2022/09/07 12:01:37;;;;;;;2.30;1.70;;;27.60;1.00;;;;;;5081999;28;20780;-85
2022/09/07 12:04:36;;;;;;;6.17;2.00;;;27.60;1.00;;;;;;5074098;28;20436;-82
2022/09/07 12:07:12;;;;;;;3.37;2.03;;;27.80;1.00;;;;;;5073511;28;20960;-85
2022/09/07 12:09:42;;;;;;;2.20;1.70;;;27.80;1.00;;;;;;5091081;28;20414;-85
2022/09/07 12:12:32;;;;;;;2.13;1.40;;;27.80;1.00;;;;;;5073142;28;20445;-79
2022/09/07 12:15:25;;;;;;;5.67;1.50;;;27.70;1.00;;;;;;5072958;28;20825;-76
2022/09/07 12:18:14;;;;;;;3.20;1.53;;;27.70;1.00;;;;;;5090540;28;20411;-76
2022/09/07 12:20:43;;;;;;;5.30;1.47;;;27.80;1.00;;;;;;5078577;28;20430;-76
2022/09/07 12:23:15;;;;;;;5.43;1.80;;;27.90;1.00;;;;;;5091292;28;20445;-70
2022/09/07 12:25:43;;;;;;;3.43;1.90;;;27.90;1.00;;;;;;5075953;28;20415;-70
2022/09/07 12:28:50;;;;;;;3.70;1.80;;;27.80;1.00;;;;;;5083145;28;20420;-80
2022/09/07 12:31:45;;;;;;;3.90;1.73;;;28.20;1.00;;;;;;5000279;28;20454;-80
2022/09/07 12:34:53;;;;;;;3.23;1.63;;;28.50;1.00;;;;;;5011022;28;20979;-70
2022/09/07 12:37:42;;;;;;;5.27;1.47;;;28.70;1.00;;;;;;4939756;29;20439;-75
2022/09/07 12:40:29;;;;;;;5.17;1.50;;;28.90;1.00;;;;;;4954018;28;20529;-75
2022/09/07 12:43:13;;;;;;;3.10;1.70;;;28.90;1.00;;;;;;4946412;28;21007;-75
2022/09/07 12:45:38;;;;;;;3.57;1.83;;;28.90;1.00;;;;;;4955994;29;20468;-75
2022/09/07 12:48:11;;;;;;;28.17;10.10;;;28.70;1.00;;;;;;4955487;29;20912;-75
2022/09/07 12:50:54;;;;;;;2.73;2.00;;;28.80;1.00;;;;;;4946722;29;20710;-75
2022/09/07 12:53:26;;;;;;;9.10;2.43;;;29.00;1.00;;;;;;4956522;29;20555;-80
2022/09/07 12:56:13;;;;;;;5.17;1.90;;;29.00;1.00;;;;;;4955382;29;20421;-71
2022/09/07 12:59:03;;;;;;;3.93;1.93;;;29.30;1.00;;;;;;4955319;29;20429;-71
2022/09/07 13:02:02;;;;;;;2.43;1.60;;;29.40;1.00;;;;;;4954816;29;20473;-71
2022/09/07 13:04:47;;;;;;;8.93;2.23;;;29.40;1.00;;;;;;4879634;29;20459;-70
2022/09/07 13:07:18;;;;;;;5.10;2.00;;;29.50;1.00;;;;;;4876799;29;20479;-74
2022/09/07 13:09:57;;;;;;;2.20;1.50;;;29.50;1.00;;;;;;4942874;29;20439;-76
2022/09/07 13:12:49;;;;;;;2.87;1.70;;;29.40;1.00;;;;;;5010045;28;20517;-74
2022/09/07 13:15:34;;;;;;;2.00;1.80;;;29.10;1.00;;;;;;5006436;28;20770;-78
2022/09/07 13:18:02;;;;;;;4.47;1.53;;;28.60;1.00;;;;;;5003477;28;20439;-77
2022/09/07 13:20:31;;;;;;;4.73;1.70;;;28.70;1.00;;;;;;4994125;28;20412;-77
2022/09/07 13:23:30;;;;;;;1.60;1.50;;;28.80;1.00;;;;;;5008186;28;20442;-84
2022/09/07 13:25:59;;;;;;;4.53;1.53;;;28.80;1.00;;;;;;4986532;28;20435;-83
2022/09/07 13:28:38;;;;;;;2.63;1.40;;;28.90;1.00;;;;;;5010328;28;20486;-83
2022/09/07 13:31:40;;;;;;;2.80;1.50;;;29.00;1.00;;;;;;4993774;28;20471;-81
2022/09/07 13:34:30;;;;;;;4.80;1.90;;;29.10;1.00;;;;;;4999881;28;20436;-76
2022/09/07 13:36:57;;;;;;;5.83;1.57;;;28.70;1.00;;;;;;5006740;28;20476;-76
2022/09/07 13:39:44;;;;;;;4.90;1.83;;;28.60;1.00;;;;;;4994463;28;20463;-80
2022/09/07 13:42:33;;;;;;;4.20;1.40;;;28.60;1.00;;;;;;5084374;28;20435;-80
2022/09/07 13:45:04;;;;;;;2.20;1.37;;;28.50;1.00;;;;;;5079379;28;20852;-78
2022/09/07 13:48:11;;;;;;;1.80;1.70;;;28.50;1.00;;;;;;5086489;28;20419;-79
2022/09/07 13:50:55;;;;;;;12.23;2.27;;;28.70;1.00;;;;;;5082409;28;20427;-79
2022/09/07 13:53:37;;;;;;;2.30;1.27;;;28.70;1.00;;;;;;5080644;28;20546;-76
2022/09/07 13:56:18;;;;;;;2.67;1.60;;;28.90;1.00;;;;;;5087563;28;20428;-75
2022/09/07 13:58:48;;;;;;;2.53;1.30;;;29.00;1.00;;;;;;5082971;28;20422;-76
2022/09/07 14:01:27;;;;;;;2.10;1.33;;;29.10;1.00;;;;;;5080397;28;20405;-76
2022/09/07 14:04:06;;;;;;;1.80;1.50;;;29.10;1.00;;;;;;5073829;28;20769;-76
2022/09/07 14:06:37;;;;;;;2.97;1.10;;;29.10;1.00;;;;;;5088678;28;20420;-76
2022/09/07 14:09:21;;;;;;;1.80;1.10;;;29.20;1.00;;;;;;5077413;28;20784;-79
2022/09/07 14:11:52;;;;;;;1.20;1.00;;;29.00;1.00;;;;;;5075215;28;20452;-79
2022/09/07 14:14:33;;;;;;;1.30;1.20;;;29.10;1.00;;;;;;5080908;28;20448;-80
2022/09/07 14:16:59;;;;;;;1.40;1.30;;;29.20;1.00;;;;;;5087769;28;20410;-80